createdAt,value
2016-07-15T00:02:56.460Z,12.2
2016-07-15T00:06:09.531Z,12.2
2016-07-15T00:09:22.555Z,12.2
2016-07-15T00:12:35.663Z,12.1
2016-07-15T00:15:53.888Z,12.2
2016-07-15T00:18:57.236Z,12.1
2016-07-15T00:22:10.361Z,12.1
2016-07-15T00:25:23.634Z,12.1
2016-07-15T00:28:36.447Z,12.1
2016-07-15T00:31:54.186Z,12.1
2016-07-15T00:34:57.437Z,12.1
2016-07-15T00:38:10.434Z,12.1
2016-07-15T00:41:23.322Z,12
2016-07-15T00:44:35.981Z,12
2016-07-15T00:47:53.021Z,12
2016-07-15T00:50:56.264Z,12
2016-07-15T00:54:09.395Z,12
2016-07-15T00:57:22.518Z,12
2016-07-15T01:00:33.426Z,12
2016-07-15T01:03:53.627Z,12
2016-07-15T01:06:56.803Z,12
2016-07-15T01:10:09.796Z,11.9
2016-07-15T01:13:22.656Z,11.9
2016-07-15T01:16:35.694Z,11.9
2016-07-15T01:19:53.440Z,11.9
2016-07-15T01:22:56.783Z,11.9
2016-07-15T01:26:10.050Z,11.9
2016-07-15T01:29:23.089Z,11.9
2016-07-15T01:32:35.849Z,11.8
2016-07-15T01:35:53.731Z,11.9
2016-07-15T01:38:56.899Z,11.9
2016-07-15T01:42:10.161Z,11.9
2016-07-15T01:45:23.442Z,11.9
2016-07-15T01:48:36.325Z,11.9
2016-07-15T01:51:54.465Z,11.9
2016-07-15T01:54:57.543Z,11.9
2016-07-15T01:58:10.742Z,11.9
2016-07-15T02:01:23.814Z,11.8
2016-07-15T02:04:36.708Z,11.8
2016-07-15T02:07:54.746Z,11.8
2016-07-15T02:10:58.017Z,11.8
2016-07-15T02:14:11.133Z,11.8
2016-07-15T02:17:24.183Z,11.8
2016-07-15T02:20:37.421Z,11.8
2016-07-15T02:23:55.681Z,11.8
2016-07-15T02:26:58.966Z,11.8
2016-07-15T02:30:11.472Z,11.8
2016-07-15T02:33:24.198Z,11.8
2016-07-15T02:36:35.404Z,11.8
2016-07-15T02:39:55.154Z,11.7
2016-07-15T02:42:58.445Z,11.7
2016-07-15T02:46:11.240Z,11.7
2016-07-15T02:49:24.235Z,11.7
2016-07-15T02:52:37.245Z,11.7
2016-07-15T02:55:55.364Z,11.7
2016-07-15T02:58:56.294Z,11.7
2016-07-15T03:02:11.557Z,11.7
2016-07-15T03:05:24.292Z,11.7
2016-07-15T03:08:37.410Z,11.7
2016-07-15T03:11:55.431Z,11.7
2016-07-15T03:14:58.453Z,11.7
2016-07-15T03:18:11.583Z,11.7
2016-07-15T03:21:22.754Z,11.6
2016-07-15T03:24:37.763Z,11.6
2016-07-15T03:27:55.692Z,11.6
2016-07-15T03:30:58.866Z,11.6
2016-07-15T03:34:11.621Z,11.6
2016-07-15T03:37:24.687Z,11.6
2016-07-15T03:40:37.453Z,11.6
2016-07-15T03:43:55.503Z,11.6
2016-07-15T03:46:58.604Z,11.6
2016-07-15T03:50:11.466Z,11.6
2016-07-15T03:53:22.372Z,11.6
2016-07-15T03:56:37.558Z,11.6
2016-07-15T03:59:55.523Z,11.7
2016-07-15T04:02:58.642Z,11.7
2016-07-15T04:06:11.507Z,11.7
2016-07-15T04:09:24.488Z,11.6
2016-07-15T04:12:37.514Z,11.6
2016-07-15T04:15:55.630Z,11.7
2016-07-15T04:18:58.998Z,11.7
2016-07-15T04:22:11.783Z,11.7
2016-07-15T04:25:24.835Z,11.7
2016-07-15T04:28:35.577Z,11.8
2016-07-15T04:31:53.530Z,11.7
2016-07-15T04:34:56.762Z,11.8
2016-07-15T04:38:09.844Z,11.8
2016-07-15T04:41:23.216Z,11.8
2016-07-15T04:44:36.462Z,11.8
2016-07-15T04:47:54.471Z,11.8
2016-07-15T04:50:57.748Z,11.8
2016-07-15T04:54:10.684Z,11.8
2016-07-15T04:57:23.605Z,11.8
2016-07-15T05:00:36.809Z,11.7
2016-07-15T05:03:54.647Z,11.7
2016-07-15T05:06:57.905Z,11.7
2016-07-15T05:10:10.871Z,11.7
2016-07-15T05:13:23.744Z,11.8
2016-07-15T05:16:36.820Z,11.8
2016-07-15T05:19:55.268Z,11.8
2016-07-15T05:22:58.589Z,11.8
2016-07-15T05:26:11.532Z,11.8
2016-07-15T05:29:24.811Z,11.8
2016-07-15T05:32:38.057Z,11.9
2016-07-15T05:35:56.085Z,11.9
2016-07-15T05:38:59.477Z,12
2016-07-15T05:42:12.629Z,12
2016-07-15T05:45:25.776Z,12.1
2016-07-15T05:48:38.703Z,12.1
2016-07-15T05:51:56.600Z,12.1
2016-07-15T05:54:57.877Z,12.1
2016-07-15T05:58:13.023Z,12.2
2016-07-15T06:01:24.309Z,12.2
2016-07-15T06:04:39.381Z,12.2
2016-07-15T06:07:52.522Z,12.2
2016-07-15T06:11:05.708Z,12.2
2016-07-15T06:14:18.800Z,12.3
2016-07-15T06:17:31.806Z,12.3
2016-07-15T06:20:50.082Z,12.3
2016-07-15T06:23:53.425Z,12.3
2016-07-15T06:27:06.728Z,12.3
2016-07-15T06:30:20.003Z,12.3
2016-07-15T06:33:33.160Z,12.3
2016-07-15T06:36:48.015Z,12.3
2016-07-15T06:39:56.414Z,12.3
2016-07-15T06:42:59.699Z,12.3
2016-07-15T06:46:13.074Z,12.3
2016-07-15T06:49:24.090Z,12.4
2016-07-15T06:52:39.491Z,12.5
2016-07-15T06:55:52.918Z,12.7
2016-07-15T06:59:06.094Z,12.8
2016-07-15T07:02:19.403Z,12.9
2016-07-15T07:05:32.758Z,13.2
2016-07-15T07:08:50.866Z,13.2
2016-07-15T07:11:54.265Z,13.1
2016-07-15T07:15:07.643Z,13.3
2016-07-15T07:18:20.627Z,13.7
2016-07-15T07:21:33.970Z,13.9
2016-07-15T07:27:56.026Z,14.1
2016-07-15T07:31:09.136Z,14.5
2016-07-15T07:34:22.655Z,14.8
2016-07-15T07:37:36.117Z,14.7
2016-07-15T07:40:54.646Z,14.9
2016-07-15T07:43:58.249Z,14.8
2016-07-15T07:47:11.928Z,14.8
2016-07-15T07:50:25.179Z,14.5
2016-07-15T07:53:38.422Z,14.3
2016-07-15T07:56:56.818Z,14.2
2016-07-15T08:00:00.315Z,14
2016-07-15T08:03:13.529Z,13.9
2016-07-15T08:06:26.831Z,13.8
2016-07-15T08:09:40.128Z,13.7
2016-07-15T08:12:53.201Z,13.7
2016-07-15T08:16:06.495Z,13.8
2016-07-15T08:19:19.850Z,13.9
2016-07-15T08:22:33.271Z,14
2016-07-15T08:25:51.582Z,14.1
2016-07-15T08:28:55.112Z,14
2016-07-15T08:32:08.610Z,14
2016-07-15T08:35:21.953Z,14.1
2016-07-15T08:38:35.525Z,14.3
2016-07-15T08:41:51.949Z,14.4
2016-07-15T08:44:55.595Z,14.4
2016-07-15T08:48:08.657Z,14.4
2016-07-15T08:51:21.892Z,14.4
2016-07-15T08:54:35.303Z,14.4
2016-07-15T08:57:53.832Z,14.2
2016-07-15T09:00:57.235Z,14.1
2016-07-15T09:04:10.594Z,14.2
2016-07-15T09:07:24.043Z,14.2
2016-07-15T09:10:37.231Z,14.2
2016-07-15T09:13:55.571Z,14.2
2016-07-15T09:16:59.202Z,14.2
2016-07-15T09:20:12.452Z,14.1
2016-07-15T09:23:25.589Z,14
2016-07-15T09:26:39.024Z,13.9
2016-07-15T09:29:57.326Z,13.9
2016-07-15T09:33:00.924Z,13.8
2016-07-15T09:36:13.893Z,13.8
2016-07-15T09:39:25.301Z,13.8
2016-07-15T09:42:40.629Z,13.9
2016-07-15T09:45:53.658Z,14
2016-07-15T09:49:03.922Z,14.1
2016-07-15T09:52:17.191Z,14.4
2016-07-15T09:55:30.529Z,14.7
2016-07-15T09:58:48.630Z,14.9
2016-07-15T10:01:57.238Z,14.9
2016-07-15T10:05:00.765Z,14.7
2016-07-15T10:08:13.866Z,14.7
2016-07-15T10:11:27.010Z,14.6
2016-07-15T10:14:40.824Z,14.5
2016-07-15T10:17:53.058Z,14.3
2016-07-15T10:21:06.368Z,14.2
2016-07-15T10:24:19.730Z,14.1
2016-07-15T10:27:32.972Z,14.1
2016-07-15T10:30:51.096Z,14
2016-07-15T10:33:52.831Z,13.9
2016-07-15T10:37:07.950Z,13.9
2016-07-15T10:40:21.326Z,13.8
2016-07-15T10:43:32.923Z,13.8
2016-07-15T10:46:52.942Z,13.8
2016-07-15T10:49:56.562Z,13.8
2016-07-15T10:53:09.859Z,13.8
2016-07-15T10:56:23.393Z,13.8
2016-07-15T10:59:36.618Z,13.8
2016-07-15T11:02:55.050Z,13.7
2016-07-15T11:05:58.586Z,13.7
2016-07-15T11:09:10.300Z,13.7
2016-07-15T11:12:23.648Z,13.7
2016-07-15T11:15:36.937Z,13.8
2016-07-15T11:18:54.547Z,13.9
2016-07-15T11:21:57.951Z,13.9
2016-07-15T11:25:11.279Z,13.9
2016-07-15T11:28:24.637Z,14
2016-07-15T11:31:38.187Z,14.1
2016-07-15T11:34:56.777Z,14.2
2016-07-15T11:38:00.360Z,14.3
2016-07-15T11:41:13.747Z,14.3
2016-07-15T11:44:27.239Z,14.2
2016-07-15T11:47:40.502Z,14.3
2016-07-15T11:50:54.196Z,14.4
2016-07-15T11:54:07.645Z,14.6
2016-07-15T11:57:21.285Z,14.8
2016-07-15T12:00:35.063Z,15
2016-07-15T12:03:53.398Z,15
2016-07-15T12:06:57.063Z,14.9
2016-07-15T12:10:10.677Z,14.8
2016-07-15T12:13:22.036Z,14.7
2016-07-15T12:16:35.401Z,14.7
2016-07-15T12:19:53.233Z,14.7
2016-07-15T12:22:56.720Z,14.6
2016-07-15T12:26:10.167Z,14.6
2016-07-15T12:29:23.578Z,14.6
2016-07-15T12:32:36.949Z,14.6
2016-07-15T12:35:55.179Z,14.8
2016-07-15T12:38:58.980Z,14.9
2016-07-15T12:42:12.643Z,15.1
2016-07-15T12:45:26.100Z,15.2
2016-07-15T12:48:39.699Z,15.4
2016-07-15T12:51:53.305Z,15.5
2016-07-15T12:55:06.850Z,15.6
2016-07-15T12:58:20.435Z,15.7
2016-07-15T13:01:33.757Z,15.7
2016-07-15T13:04:52.063Z,15.7
2016-07-15T13:07:55.639Z,15.8
2016-07-15T13:11:09.241Z,15.9
2016-07-15T13:14:22.846Z,15.9
2016-07-15T13:17:36.488Z,16
2016-07-15T13:20:55.053Z,16
2016-07-15T13:23:58.702Z,16
2016-07-15T13:27:12.102Z,16.1
2016-07-15T13:30:25.511Z,16.1
2016-07-15T13:33:39.012Z,16.2
2016-07-15T13:36:57.419Z,16.3
2016-07-15T13:39:59.341Z,16.4
2016-07-15T13:43:14.872Z,16.4
2016-07-15T13:46:28.545Z,16.3
2016-07-15T13:49:42.127Z,16.2
2016-07-15T13:52:55.319Z,16.1
2016-07-15T13:56:08.997Z,16.1
2016-07-15T13:59:22.637Z,16.2
2016-07-15T14:02:36.096Z,16.1
2016-07-15T14:05:54.537Z,16
2016-07-15T14:08:58.186Z,16
2016-07-15T14:12:11.759Z,15.8
2016-07-15T14:15:24.926Z,15.7
2016-07-15T14:18:38.444Z,15.4
2016-07-15T14:21:56.782Z,15.1
2016-07-15T14:25:00.302Z,14.9
2016-07-15T14:28:13.535Z,14.9
2016-07-15T14:31:27.088Z,14.9
2016-07-15T14:34:40.585Z,14.9
2016-07-15T14:37:54.254Z,15
2016-07-15T14:41:07.881Z,15
2016-07-15T14:44:21.537Z,15.2
2016-07-15T14:47:35.162Z,15.3
2016-07-15T14:50:53.223Z,15.4
2016-07-15T14:53:57.009Z,15.5
2016-07-15T14:57:10.780Z,15.6
2016-07-15T15:00:24.361Z,15.6
2016-07-15T15:03:38.061Z,15.6
2016-07-15T15:06:56.567Z,15.6
2016-07-15T15:10:00.321Z,15.6
2016-07-15T15:13:12.322Z,15.6
2016-07-15T15:16:27.631Z,15.6
2016-07-15T15:19:39.393Z,15.6
2016-07-15T15:22:54.524Z,15.6
2016-07-15T15:26:07.569Z,15.6
2016-07-15T15:29:21.149Z,15.6
2016-07-15T15:32:34.674Z,15.6
2016-07-15T15:35:53.319Z,15.7
2016-07-15T15:38:55.361Z,15.8
2016-07-15T15:42:10.666Z,15.8
2016-07-15T15:45:24.162Z,15.8
2016-07-15T15:48:37.604Z,15.8
2016-07-15T15:51:56.313Z,15.7
2016-07-15T15:54:58.457Z,15.8
2016-07-15T15:58:14.220Z,15.8
2016-07-15T16:01:27.752Z,15.7
2016-07-15T16:04:41.549Z,15.7
2016-07-15T16:07:53.215Z,15.7
2016-07-15T16:11:08.710Z,15.6
2016-07-15T16:14:22.197Z,15.6
2016-07-15T16:17:35.900Z,15.5
2016-07-15T16:20:54.707Z,15.4
2016-07-15T16:23:58.413Z,15.4
2016-07-15T16:27:12.174Z,15.4
2016-07-15T16:30:25.904Z,15.4
2016-07-15T16:33:39.595Z,15.5
2016-07-15T16:36:53.302Z,15.5
2016-07-15T16:40:04.825Z,15.5
2016-07-15T16:43:20.556Z,15.5
2016-07-15T16:46:34.006Z,15.5
2016-07-15T16:49:52.528Z,15.4
2016-07-15T16:52:56.174Z,15.4
2016-07-15T16:56:09.705Z,15.4
2016-07-15T16:59:23.195Z,15.4
2016-07-15T17:02:36.759Z,15.4
2016-07-15T17:05:55.312Z,15.4
2016-07-15T17:08:59.007Z,15.3
2016-07-15T17:12:11.736Z,15.3
2016-07-15T17:15:25.163Z,15.3
2016-07-15T17:18:38.536Z,15.2
2016-07-15T17:21:56.846Z,15.2
2016-07-15T17:25:00.539Z,15.2
2016-07-15T17:28:13.989Z,15.2
2016-07-15T17:31:27.495Z,15.2
2016-07-15T17:34:40.889Z,15.1
2016-07-15T17:37:52.578Z,15
2016-07-15T17:41:07.984Z,15
2016-07-15T17:44:21.476Z,14.9
2016-07-15T17:47:35.011Z,14.9
2016-07-15T17:50:53.514Z,14.9
2016-07-15T17:53:57.064Z,14.9
2016-07-15T17:57:10.489Z,14.9
2016-07-15T18:00:20.681Z,14.9
2016-07-15T18:03:34.012Z,14.9
2016-07-15T18:06:52.481Z,14.9
2016-07-15T18:09:56.032Z,14.9
2016-07-15T18:13:09.474Z,14.9
2016-07-15T18:16:22.833Z,14.8
2016-07-15T18:19:35.927Z,14.8
2016-07-15T18:22:54.016Z,14.8
2016-07-15T18:25:57.556Z,14.8
2016-07-15T18:29:11.060Z,14.9
2016-07-15T18:32:24.406Z,14.9
2016-07-15T18:35:37.664Z,14.8
2016-07-15T18:38:55.920Z,14.8
2016-07-15T18:41:57.375Z,14.9
2016-07-15T18:45:12.589Z,14.9
2016-07-15T18:48:26.187Z,14.9
2016-07-15T18:51:37.356Z,14.8
2016-07-15T18:54:55.665Z,14.7
2016-07-15T18:57:59.354Z,14.8
2016-07-15T19:01:12.771Z,14.7
2016-07-15T19:04:26.090Z,14.7
2016-07-15T19:07:39.504Z,14.7
2016-07-15T19:10:57.813Z,14.7
2016-07-15T19:13:59.476Z,14.6
2016-07-15T19:17:14.590Z,14.6
2016-07-15T19:20:27.977Z,14.5
2016-07-15T19:23:41.295Z,14.5
2016-07-15T19:26:58.695Z,14.5
2016-07-15T19:30:07.935Z,14.5
2016-07-15T19:33:21.418Z,14.5
2016-07-15T19:36:34.634Z,14.5
2016-07-15T19:39:52.786Z,14.4
2016-07-15T19:42:56.360Z,14.4
2016-07-15T19:46:06.949Z,14.3
2016-07-15T19:49:20.390Z,14.3
2016-07-15T19:52:33.518Z,14.3
2016-07-15T19:55:51.675Z,14.3
2016-07-15T19:58:55.268Z,14.3
2016-07-15T20:02:08.645Z,14.2
2016-07-15T20:05:21.995Z,14.2
2016-07-15T20:08:35.424Z,14.2
2016-07-15T20:11:53.754Z,14.2
2016-07-15T20:14:57.317Z,14.1
2016-07-15T20:18:10.223Z,14.1
2016-07-15T20:21:23.756Z,14
2016-07-15T20:24:37.268Z,14
2016-07-15T20:27:55.329Z,13.9
2016-07-15T20:30:58.929Z,13.9
2016-07-15T20:34:12.392Z,13.9
2016-07-15T20:37:23.452Z,13.9
2016-07-15T20:40:38.743Z,13.9
2016-07-15T20:43:57.056Z,13.9
2016-07-15T20:47:00.580Z,13.8
2016-07-15T20:50:13.904Z,13.8
2016-07-15T20:53:27.095Z,13.9
2016-07-15T20:56:40.523Z,13.9
2016-07-15T20:59:53.574Z,13.9
2016-07-15T21:03:06.797Z,13.8
2016-07-15T21:06:20.273Z,13.8
2016-07-15T21:09:33.558Z,13.8
2016-07-15T21:15:55.133Z,13.7
2016-07-15T21:19:08.032Z,13.7
2016-07-15T21:22:19.299Z,13.7
2016-07-15T21:25:32.673Z,13.6
2016-07-15T21:28:50.690Z,13.5
2016-07-15T21:31:54.077Z,13.5
2016-07-15T21:35:07.414Z,13.4
2016-07-15T21:38:20.598Z,13.3
2016-07-15T21:41:33.758Z,13.3
2016-07-15T21:44:51.868Z,13.3
2016-07-15T21:47:55.264Z,13.2
2016-07-15T21:51:08.670Z,13.2
2016-07-15T21:54:21.976Z,13.1
2016-07-15T21:57:34.284Z,13.1
2016-07-15T22:00:52.542Z,13.1
2016-07-15T22:03:56.052Z,13.1
2016-07-15T22:07:09.373Z,13
2016-07-15T22:10:22.694Z,12.9
2016-07-15T22:13:35.816Z,12.9
2016-07-15T22:16:54.322Z,12.9
2016-07-15T22:19:57.922Z,12.8
2016-07-15T22:23:11.450Z,12.7
2016-07-15T22:26:24.791Z,12.7
2016-07-15T22:29:38.075Z,12.6
2016-07-15T22:32:56.321Z,12.6
2016-07-15T22:35:57.991Z,12.5
2016-07-15T22:39:13.154Z,12.5
2016-07-15T22:42:26.350Z,12.4
2016-07-15T22:45:37.438Z,12.4
2016-07-15T22:48:57.555Z,12.3
2016-07-15T22:52:01.055Z,12.3
2016-07-15T22:55:14.192Z,12.3
2016-07-15T22:58:27.542Z,12.2
2016-07-15T23:01:40.889Z,12.2
2016-07-15T23:04:54.190Z,12.3
2016-07-15T23:08:07.548Z,12.3
2016-07-15T23:11:21.010Z,12.2
2016-07-15T23:14:34.062Z,12.2
2016-07-15T23:17:51.845Z,12.2
2016-07-15T23:20:53.199Z,12.1
2016-07-15T23:24:08.186Z,12.1
2016-07-15T23:27:21.444Z,12
2016-07-15T23:30:34.513Z,12
2016-07-15T23:33:52.303Z,12
2016-07-15T23:36:55.637Z,12
2016-07-15T23:40:08.846Z,12
2016-07-15T23:43:22.101Z,11.9
2016-07-15T23:46:35.142Z,11.9
2016-07-15T23:49:53.264Z,11.9
2016-07-15T23:52:56.632Z,11.8
2016-07-15T23:56:09.935Z,11.8
2016-07-15T23:59:23.145Z,11.7
